createdAt,value
2023-09-27T00:01:15.097Z,24.30
2023-09-27T00:03:43.934Z,23.30
2023-09-27T00:06:12.801Z,21.50
2023-09-27T00:08:41.855Z,24.40
2023-09-27T00:11:10.767Z,24.80
2023-09-27T00:13:40.604Z,23.40
2023-09-27T00:16:09.541Z,21.10
2023-09-27T00:18:38.378Z,21.90
2023-09-27T00:21:07.246Z,23.00
2023-09-27T00:23:36.736Z,22.00
2023-09-27T00:26:05.727Z,22.20
2023-09-27T00:28:34.723Z,23.00
2023-09-27T00:31:04.963Z,22.90
2023-09-27T00:33:33.814Z,20.80
2023-09-27T00:36:03.105Z,22.80
2023-09-27T00:38:33.240Z,20.00
2023-09-27T00:41:01.601Z,21.10
2023-09-27T00:43:31.935Z,22.30
2023-09-27T00:46:21.017Z,20.80
2023-09-27T00:48:50.292Z,19.60
2023-09-27T00:51:19.525Z,20.60
2023-09-27T00:53:49.970Z,19.60
2023-09-27T00:56:20.010Z,20.00
2023-09-27T00:58:49.536Z,18.90
2023-09-27T01:01:19.329Z,19.10
2023-09-27T01:03:49.291Z,18.90
2023-09-27T01:06:19.203Z,19.50
2023-09-27T01:08:48.576Z,19.20
2023-09-27T01:11:17.859Z,20.20
2023-09-27T01:13:46.956Z,20.70
2023-09-27T01:16:16.352Z,17.90
2023-09-27T01:18:45.245Z,18.40
2023-09-27T01:21:19.449Z,18.50
2023-09-27T01:23:50.953Z,15.80
2023-09-27T01:26:21.712Z,18.50
2023-09-27T01:28:51.780Z,15.70
2023-09-27T01:31:20.495Z,13.70
2023-09-27T01:33:49.838Z,15.00
2023-09-27T01:36:19.017Z,13.80
2023-09-27T01:38:48.010Z,13.50
2023-09-27T01:41:17.439Z,11.80
2023-09-27T01:43:46.359Z,12.60
2023-09-27T01:46:15.428Z,12.90
2023-09-27T01:48:44.146Z,15.50
2023-09-27T01:51:14.183Z,15.00
2023-09-27T01:53:43.086Z,13.80
2023-09-27T01:56:11.758Z,13.40
2023-09-27T01:58:40.860Z,13.60
2023-09-27T02:01:08.912Z,16.70
2023-09-27T02:03:37.935Z,18.90
2023-09-27T02:06:07.126Z,21.00
2023-09-27T02:08:35.892Z,19.40
2023-09-27T02:11:04.443Z,18.00
2023-09-27T02:13:33.904Z,17.20
2023-09-27T02:16:03.085Z,14.30
2023-09-27T02:18:33.314Z,12.10
2023-09-27T02:21:03.577Z,12.20
2023-09-27T02:23:32.897Z,11.20
2023-09-27T02:26:03.010Z,13.90
2023-09-27T02:28:31.909Z,13.40
2023-09-27T02:31:01.078Z,13.60
2023-09-27T02:33:30.314Z,13.90
2023-09-27T02:35:59.424Z,12.50
2023-09-27T02:38:28.422Z,13.20
2023-09-27T02:40:57.418Z,12.10
2023-09-27T02:43:26.422Z,12.50
2023-09-27T02:45:56.429Z,13.00
2023-09-27T02:48:26.881Z,11.80
2023-09-27T02:50:56.425Z,11.80
2023-09-27T02:53:25.869Z,12.80
2023-09-27T02:55:55.266Z,10.90
2023-09-27T02:58:24.640Z,12.10
2023-09-27T03:00:53.370Z,11.00
2023-09-27T03:03:21.899Z,11.60
2023-09-27T03:05:50.318Z,13.30
2023-09-27T03:08:19.069Z,12.30
2023-09-27T03:10:46.193Z,13.10
2023-09-27T03:13:13.212Z,13.90
2023-09-27T03:15:41.638Z,13.10
2023-09-27T03:18:10.229Z,13.80
2023-09-27T03:20:38.955Z,13.80
2023-09-27T03:23:08.517Z,14.90
2023-09-27T03:25:37.568Z,12.70
2023-09-27T03:28:06.721Z,13.90
2023-09-27T03:30:35.564Z,15.10
2023-09-27T03:33:06.476Z,14.70
2023-09-27T03:35:36.853Z,16.10
2023-09-27T03:38:06.173Z,15.90
2023-09-27T03:40:35.195Z,14.50
2023-09-27T03:43:04.415Z,15.00
2023-09-27T03:45:35.031Z,15.10
2023-09-27T03:48:06.564Z,16.30
2023-09-27T03:50:35.412Z,14.90
2023-09-27T03:53:05.252Z,14.00
2023-09-27T03:55:34.330Z,14.50
2023-09-27T03:58:03.902Z,14.30
2023-09-27T04:00:32.739Z,12.40
2023-09-27T04:03:01.749Z,15.60
2023-09-27T04:05:33.264Z,16.50
2023-09-27T04:08:03.470Z,15.90
2023-09-27T04:10:32.421Z,16.40
2023-09-27T04:13:01.290Z,18.30
2023-09-27T04:15:30.798Z,16.40
2023-09-27T04:18:00.192Z,18.20
2023-09-27T04:20:29.814Z,15.90
2023-09-27T04:22:59.259Z,15.30
2023-09-27T04:25:28.406Z,15.20
2023-09-27T04:27:58.236Z,14.30
2023-09-27T04:30:27.706Z,13.90
2023-09-27T04:32:56.557Z,14.60
2023-09-27T04:35:25.490Z,13.90
2023-09-27T04:37:54.543Z,13.60
2023-09-27T04:40:23.869Z,13.10
2023-09-27T04:42:52.783Z,13.40
2023-09-27T04:45:22.040Z,15.20
2023-09-27T04:47:51.234Z,14.20
2023-09-27T04:50:19.542Z,12.80
2023-09-27T04:52:48.652Z,14.30
2023-09-27T04:55:17.956Z,13.10
2023-09-27T04:57:45.721Z,14.20
2023-09-27T05:00:19.343Z,14.10
2023-09-27T05:02:55.268Z,13.90
2023-09-27T05:05:23.258Z,13.80
2023-09-27T05:07:51.001Z,14.30
2023-09-27T05:10:19.258Z,13.40
2023-09-27T05:12:47.643Z,14.00
2023-09-27T05:15:14.729Z,13.20
2023-09-27T05:17:41.779Z,13.70
2023-09-27T05:20:11.153Z,13.50
2023-09-27T05:22:39.565Z,12.50
2023-09-27T05:25:08.748Z,13.30
2023-09-27T05:27:35.895Z,13.50
2023-09-27T05:30:08.023Z,13.20
2023-09-27T05:32:35.507Z,13.20
2023-09-27T05:35:05.297Z,13.50
2023-09-27T05:37:32.546Z,13.60
2023-09-27T05:39:59.561Z,14.70
2023-09-27T05:42:26.767Z,14.40
2023-09-27T05:44:53.856Z,15.70
2023-09-27T05:47:21.205Z,16.10
2023-09-27T05:49:48.236Z,16.00
2023-09-27T05:52:17.495Z,15.00
2023-09-27T05:54:45.550Z,16.00
2023-09-27T05:57:12.983Z,15.60
2023-09-27T05:59:44.909Z,15.80
2023-09-27T06:02:17.414Z,17.10
2023-09-27T06:04:46.485Z,16.00
2023-09-27T06:07:15.280Z,17.70
2023-09-27T06:09:44.919Z,19.30
2023-09-27T06:12:12.553Z,17.90
2023-09-27T06:14:39.788Z,17.80
2023-09-27T06:17:06.892Z,18.60
2023-09-27T06:19:34.672Z,18.00
2023-09-27T06:22:05.439Z,17.20
2023-09-27T06:24:33.866Z,17.00
2023-09-27T06:27:02.019Z,16.70
2023-09-27T06:29:28.987Z,16.10
2023-09-27T06:31:57.288Z,16.20
2023-09-27T06:34:24.611Z,16.20
2023-09-27T06:36:56.794Z,15.80
2023-09-27T06:39:26.317Z,16.20
2023-09-27T06:41:56.523Z,15.10
2023-09-27T06:44:26.531Z,15.60
2023-09-27T06:46:55.149Z,15.20
2023-09-27T06:49:23.185Z,14.70
2023-09-27T06:51:51.996Z,15.10
2023-09-27T06:54:19.156Z,15.80
2023-09-27T06:56:47.405Z,15.80
2023-09-27T06:59:16.433Z,16.00
2023-09-27T07:01:43.521Z,14.00
2023-09-27T07:04:11.696Z,14.20
2023-09-27T07:06:39.248Z,15.90
2023-09-27T07:09:13.343Z,16.40
2023-09-27T07:11:42.618Z,15.50
2023-09-27T07:14:09.721Z,13.20
2023-09-27T07:16:46.423Z,14.50
2023-09-27T07:19:23.836Z,13.70
2023-09-27T07:21:51.851Z,14.10
2023-09-27T07:24:19.318Z,12.80
2023-09-27T07:26:48.450Z,11.50
2023-09-27T07:29:16.699Z,12.30
2023-09-27T07:31:43.698Z,12.00
2023-09-27T07:34:10.986Z,11.30
2023-09-27T07:36:38.184Z,11.60
2023-09-27T07:39:06.128Z,11.40
2023-09-27T07:41:35.805Z,10.90
2023-09-27T07:44:07.377Z,10.20
2023-09-27T07:46:35.946Z,10.30
2023-09-27T07:49:04.288Z,9.70
2023-09-27T07:51:31.300Z,9.30
2023-09-27T07:53:58.312Z,9.80
2023-09-27T07:56:26.882Z,9.70
2023-09-27T07:58:55.329Z,10.10
2023-09-27T08:01:24.295Z,9.20
2023-09-27T08:03:52.207Z,10.00
2023-09-27T08:06:20.282Z,10.20
2023-09-27T08:08:47.947Z,9.40
2023-09-27T08:11:16.076Z,8.70
2023-09-27T08:13:44.945Z,8.90
2023-09-27T08:16:13.149Z,8.50
2023-09-27T08:18:43.439Z,8.90
2023-09-27T08:21:12.154Z,8.20
2023-09-27T08:23:41.643Z,9.20
2023-09-27T08:26:12.904Z,9.40
2023-09-27T08:28:40.456Z,7.30
2023-09-27T08:31:07.619Z,7.70
2023-09-27T08:33:36.454Z,7.90
2023-09-27T08:36:05.371Z,7.90
2023-09-27T08:38:34.276Z,7.40
2023-09-27T08:41:04.212Z,7.10
2023-09-27T08:43:34.956Z,7.90
2023-09-27T08:46:05.578Z,7.30
2023-09-27T08:48:36.145Z,6.80
2023-09-27T08:51:05.542Z,7.20
2023-09-27T08:53:35.531Z,6.20
2023-09-27T08:56:06.818Z,7.50
2023-09-27T08:58:34.682Z,9.70
2023-09-27T09:01:04.195Z,7.70
2023-09-27T09:03:34.009Z,7.10
2023-09-27T09:06:11.186Z,7.30
2023-09-27T09:08:54.661Z,6.50
2023-09-27T09:11:23.637Z,6.30
2023-09-27T09:14:04.950Z,6.10
2023-09-27T09:16:40.729Z,6.80
2023-09-27T09:19:42.899Z,7.20
2023-09-27T09:22:13.395Z,5.50
2023-09-27T09:24:42.860Z,5.70
2023-09-27T09:27:18.243Z,5.40
2023-09-27T09:29:53.003Z,8.30
2023-09-27T09:34:53.529Z,7.20
2023-09-27T09:37:23.802Z,5.00
2023-09-27T09:39:54.442Z,5.60
2023-09-27T09:42:33.539Z,5.30
2023-09-27T09:45:07.389Z,5.10
2023-09-27T09:47:38.560Z,11.00
2023-09-27T09:50:20.321Z,6.20
2023-09-27T09:52:58.310Z,5.80
2023-09-27T09:55:48.719Z,5.10
2023-09-27T09:58:47.495Z,5.60
2023-09-27T10:01:26.872Z,4.90
2023-09-27T10:03:55.781Z,5.40
2023-09-27T10:06:36.517Z,4.60
2023-09-27T10:09:14.556Z,5.00
2023-09-27T10:11:45.384Z,4.80
2023-09-27T10:14:16.922Z,4.60
2023-09-27T10:16:45.523Z,4.90
2023-09-27T10:19:26.646Z,4.80
2023-09-27T10:22:07.956Z,4.70
2023-09-27T10:24:41.662Z,5.40
2023-09-27T10:27:08.815Z,4.60
2023-09-27T10:29:58.752Z,5.30
2023-09-27T10:32:28.591Z,4.30
2023-09-27T10:35:16.634Z,5.00
2023-09-27T10:37:58.787Z,4.40
2023-09-27T10:40:26.272Z,5.10
2023-09-27T10:42:55.793Z,4.70
2023-09-27T10:45:23.496Z,4.90
2023-09-27T10:47:52.845Z,4.60
2023-09-27T10:50:31.538Z,4.30
2023-09-27T10:52:59.728Z,4.80
2023-09-27T10:55:39.209Z,4.20
2023-09-27T10:58:09.989Z,4.90
2023-09-27T11:00:55.730Z,4.50
2023-09-27T11:03:30.390Z,5.80
2023-09-27T11:06:11.795Z,5.30
2023-09-27T11:08:41.752Z,5.50
2023-09-27T11:11:11.848Z,6.80
2023-09-27T11:13:49.192Z,5.00
2023-09-27T11:16:21.613Z,5.30
2023-09-27T11:18:50.603Z,4.90
2023-09-27T11:21:24.497Z,4.90
2023-09-27T11:24:05.489Z,4.80
2023-09-27T11:26:33.782Z,4.60
2023-09-27T11:29:27.328Z,4.50
2023-09-27T11:31:58.303Z,6.30
2023-09-27T11:34:58.498Z,5.90
2023-09-27T11:37:29.002Z,7.20
2023-09-27T11:39:59.605Z,6.10
2023-09-27T11:42:28.466Z,5.50
2023-09-27T11:45:09.914Z,6.00
2023-09-27T11:47:51.909Z,4.10
2023-09-27T11:50:43.565Z,4.30
2023-09-27T11:53:14.178Z,5.10
2023-09-27T11:55:59.726Z,4.40
2023-09-27T11:58:37.606Z,4.70
2023-09-27T12:01:17.436Z,5.00
2023-09-27T12:04:08.300Z,4.40
2023-09-27T12:06:38.172Z,4.40
2023-09-27T12:09:07.038Z,3.70
2023-09-27T12:11:36.746Z,4.10
2023-09-27T12:14:08.418Z,3.70
2023-09-27T12:16:38.462Z,4.00
2023-09-27T12:19:08.829Z,5.80
2023-09-27T12:21:38.226Z,3.80
2023-09-27T12:24:08.852Z,3.80
2023-09-27T12:26:38.562Z,3.80
2023-09-27T12:29:08.320Z,3.80
2023-09-27T12:31:37.535Z,3.90
2023-09-27T12:34:06.907Z,4.30
2023-09-27T12:36:51.273Z,5.60
2023-09-27T12:41:55.359Z,4.40
2023-09-27T12:46:58.162Z,5.50
2023-09-27T12:49:28.108Z,10.00
2023-09-27T12:51:56.995Z,7.40
2023-09-27T12:54:30.477Z,4.80
2023-09-27T12:57:01.624Z,4.50
2023-09-27T12:59:41.095Z,4.70
2023-09-27T13:02:31.725Z,4.60
2023-09-27T13:05:02.411Z,4.90
2023-09-27T13:07:51.403Z,5.00
2023-09-27T13:10:21.361Z,4.70
2023-09-27T13:12:53.192Z,4.40
2023-09-27T13:15:20.598Z,4.10
2023-09-27T13:17:47.951Z,4.30
2023-09-27T13:20:16.102Z,3.70
2023-09-27T13:22:46.112Z,4.10
2023-09-27T13:25:16.029Z,4.30
2023-09-27T13:27:45.714Z,4.30
2023-09-27T13:30:29.673Z,3.90
2023-09-27T13:33:06.859Z,3.90
2023-09-27T13:35:37.328Z,4.90
2023-09-27T13:38:11.110Z,5.20
2023-09-27T13:40:39.732Z,4.10
2023-09-27T13:43:08.922Z,4.80
2023-09-27T13:45:38.978Z,3.90
2023-09-27T13:48:08.598Z,4.00
2023-09-27T13:50:41.290Z,5.90
2023-09-27T13:53:11.630Z,5.30
2023-09-27T13:55:59.058Z,4.20
2023-09-27T13:58:28.170Z,4.00
2023-09-27T14:01:23.694Z,5.30
2023-09-27T14:04:03.432Z,4.70
2023-09-27T14:06:57.987Z,4.90
2023-09-27T14:09:28.895Z,4.40
2023-09-27T14:19:53.115Z,4.50
2023-09-27T14:22:49.257Z,4.20
2023-09-27T14:25:37.068Z,4.50
2023-09-27T14:28:14.429Z,4.30
2023-09-27T14:31:39.086Z,4.40
2023-09-27T14:34:56.711Z,4.40
2023-09-27T14:38:14.266Z,3.60
2023-09-27T14:41:30.151Z,4.20
2023-09-27T14:44:28.011Z,4.00
2023-09-27T14:47:55.876Z,4.10
2023-09-27T14:50:26.123Z,3.80
2023-09-27T14:52:56.704Z,4.40
2023-09-27T14:55:30.690Z,4.60
2023-09-27T14:58:22.019Z,4.60
2023-09-27T15:00:52.875Z,5.50
2023-09-27T15:03:34.083Z,6.30
2023-09-27T15:06:07.861Z,8.20
2023-09-27T15:08:38.789Z,5.50
2023-09-27T15:11:22.542Z,5.00
2023-09-27T15:14:10.165Z,5.60
2023-09-27T15:16:51.653Z,4.30
2023-09-27T15:19:23.135Z,4.90
2023-09-27T15:22:22.697Z,4.90
2023-09-27T15:24:53.631Z,4.70
2023-09-27T15:27:43.323Z,5.60
2023-09-27T15:30:22.733Z,5.10
2023-09-27T15:32:55.194Z,4.80
2023-09-27T15:35:55.313Z,4.20
2023-09-27T15:38:50.878Z,5.40
2023-09-27T15:41:44.627Z,5.80
2023-09-27T15:44:14.112Z,4.60
2023-09-27T15:46:49.768Z,4.30
2023-09-27T15:49:18.977Z,4.70
2023-09-27T15:52:19.141Z,4.40
2023-09-27T15:55:09.634Z,4.40
2023-09-27T15:57:49.593Z,4.40
2023-09-27T16:00:19.704Z,8.30
2023-09-27T16:03:01.217Z,6.00
2023-09-27T16:05:52.499Z,5.60
2023-09-27T16:08:23.923Z,5.10
2023-09-27T16:11:27.089Z,4.90
2023-09-27T16:14:09.990Z,5.10
2023-09-27T16:16:45.496Z,4.80
2023-09-27T16:24:48.045Z,5.00
2023-09-27T16:27:35.034Z,5.00
2023-09-27T16:30:21.123Z,5.30
2023-09-27T16:32:50.317Z,5.50
2023-09-27T16:35:18.453Z,5.10
2023-09-27T16:37:46.206Z,5.60
2023-09-27T16:40:14.865Z,5.40
2023-09-27T16:42:42.509Z,6.20
2023-09-27T16:45:11.062Z,5.90
2023-09-27T16:47:40.151Z,6.00
2023-09-27T16:50:09.956Z,5.60
2023-09-27T16:52:37.906Z,5.60
2023-09-27T16:55:09.409Z,5.10
2023-09-27T16:57:39.362Z,6.40
2023-09-27T17:00:11.347Z,4.90
2023-09-27T17:02:44.005Z,5.60
2023-09-27T17:05:11.683Z,5.80
2023-09-27T17:07:39.821Z,7.30
2023-09-27T17:10:10.628Z,6.00
2023-09-27T17:12:40.065Z,5.90
2023-09-27T17:15:08.867Z,6.20
2023-09-27T17:17:37.466Z,6.30
2023-09-27T17:20:06.217Z,5.90
2023-09-27T17:22:34.025Z,7.40
2023-09-27T17:25:01.591Z,6.40
2023-09-27T17:27:29.246Z,7.00
2023-09-27T17:29:59.254Z,7.10
2023-09-27T17:32:26.851Z,7.60
2023-09-27T17:34:54.899Z,7.30
2023-09-27T17:37:22.725Z,6.60
2023-09-27T17:39:51.706Z,5.90
2023-09-27T17:42:19.263Z,7.00
2023-09-27T17:44:49.420Z,6.50
2023-09-27T17:47:17.750Z,6.70
2023-09-27T17:49:45.385Z,6.90
2023-09-27T17:52:13.048Z,7.00
2023-09-27T17:54:40.797Z,6.50
2023-09-27T17:57:08.536Z,6.90
2023-09-27T17:59:36.359Z,7.70
2023-09-27T18:02:04.180Z,8.20
2023-09-27T18:04:32.479Z,7.50
2023-09-27T18:06:59.692Z,6.50
2023-09-27T18:09:26.889Z,7.00
2023-09-27T18:11:54.109Z,7.90
2023-09-27T18:14:22.478Z,7.60
2023-09-27T18:16:49.761Z,7.20
2023-09-27T18:19:17.316Z,7.00
2023-09-27T18:21:46.055Z,6.70
2023-09-27T18:24:13.374Z,7.40
2023-09-27T18:26:40.625Z,7.40
2023-09-27T18:29:07.965Z,7.20
2023-09-27T18:31:35.273Z,7.60
2023-09-27T18:34:05.426Z,7.50
2023-09-27T18:36:34.327Z,7.80
2023-09-27T18:39:03.326Z,7.50
2023-09-27T18:41:31.416Z,8.20
2023-09-27T18:43:59.138Z,7.70
2023-09-27T18:46:26.589Z,7.30
2023-09-27T18:48:54.060Z,9.20
2023-09-27T18:51:21.681Z,8.00
2023-09-27T18:53:49.857Z,8.40
2023-09-27T18:56:20.145Z,9.70
2023-09-27T18:58:47.525Z,7.80
2023-09-27T19:01:15.412Z,10.30
2023-09-27T19:03:42.470Z,9.70
2023-09-27T19:06:14.743Z,8.80
2023-09-27T19:08:42.926Z,9.00
2023-09-27T19:11:18.240Z,9.20
2023-09-27T19:13:45.461Z,8.60
2023-09-27T19:16:12.605Z,8.70
2023-09-27T19:18:39.863Z,8.20
2023-09-27T19:21:09.090Z,8.60
2023-09-27T19:23:39.574Z,8.60
2023-09-27T19:26:07.461Z,9.90
2023-09-27T19:28:35.936Z,8.80
2023-09-27T19:31:07.823Z,10.00
2023-09-27T19:33:41.759Z,9.30
2023-09-27T19:36:18.431Z,10.20
2023-09-27T19:38:47.982Z,10.00
2023-09-27T19:41:21.512Z,9.40
2023-09-27T19:43:48.702Z,8.20
2023-09-27T19:46:21.565Z,9.70
2023-09-27T19:48:48.787Z,9.20
2023-09-27T19:51:25.263Z,8.70
2023-09-27T19:53:54.837Z,14.30
2023-09-27T19:56:22.291Z,16.20
2023-09-27T19:58:49.890Z,11.00
2023-09-27T20:01:29.360Z,11.10
2023-09-27T20:03:56.887Z,12.20
2023-09-27T20:06:25.969Z,9.80
2023-09-27T20:08:52.913Z,10.60
2023-09-27T20:11:20.766Z,9.10
2023-09-27T20:13:47.929Z,9.90
2023-09-27T20:16:15.203Z,9.60
2023-09-27T20:18:42.225Z,9.50
2023-09-27T20:21:09.485Z,11.40
2023-09-27T20:23:38.507Z,10.30
2023-09-27T20:26:05.831Z,11.30
2023-09-27T20:28:33.019Z,10.00
2023-09-27T20:31:00.031Z,9.60
2023-09-27T20:33:27.193Z,11.80
2023-09-27T20:35:54.174Z,10.10
2023-09-27T20:38:21.230Z,9.90
2023-09-27T20:40:48.229Z,9.40
2023-09-27T20:43:15.484Z,10.40
2023-09-27T20:45:42.657Z,11.50
2023-09-27T20:48:09.716Z,14.20
2023-09-27T20:50:36.847Z,13.70
2023-09-27T20:53:04.012Z,11.40
2023-09-27T20:55:31.210Z,10.10
2023-09-27T20:58:04.111Z,10.70
2023-09-27T21:00:31.855Z,11.60
2023-09-27T21:02:58.926Z,10.80
2023-09-27T21:05:25.958Z,10.50
2023-09-27T21:07:53.496Z,10.80
2023-09-27T21:10:20.603Z,11.00
2023-09-27T21:12:47.578Z,9.90
2023-09-27T21:15:14.658Z,10.60
2023-09-27T21:17:41.923Z,11.10
2023-09-27T21:20:10.070Z,10.10
2023-09-27T21:22:37.207Z,10.90
2023-09-27T21:25:04.888Z,11.10
2023-09-27T21:27:32.922Z,9.80
2023-09-27T21:30:04.238Z,10.30
2023-09-27T21:32:31.347Z,11.40
2023-09-27T21:34:58.545Z,10.20
2023-09-27T21:37:26.628Z,10.40
2023-09-27T21:39:54.157Z,10.60
2023-09-27T21:42:21.110Z,10.30
2023-09-27T21:44:48.078Z,10.90
2023-09-27T21:47:15.204Z,10.60
2023-09-27T21:49:42.272Z,10.60
2023-09-27T21:52:09.298Z,11.20
2023-09-27T21:54:36.333Z,12.10
2023-09-27T21:57:03.482Z,13.10
2023-09-27T21:59:31.661Z,13.20
2023-09-27T22:01:58.714Z,10.80
2023-09-27T22:04:25.812Z,11.90
2023-09-27T22:06:52.777Z,11.30
2023-09-27T22:09:20.083Z,11.00
2023-09-27T22:11:51.782Z,12.30
2023-09-27T22:14:20.472Z,12.50
2023-09-27T22:16:48.491Z,11.50
2023-09-27T22:19:15.479Z,11.00
2023-09-27T22:21:46.681Z,11.00
2023-09-27T22:24:18.240Z,11.90
2023-09-27T22:26:47.441Z,11.70
2023-09-27T22:29:14.516Z,12.80
2023-09-27T22:31:42.796Z,11.00
2023-09-27T22:34:23.105Z,11.10
2023-09-27T22:36:51.350Z,13.00
2023-09-27T22:39:19.632Z,12.50
2023-09-27T22:41:48.754Z,11.30
2023-09-27T22:44:22.691Z,12.00
2023-09-27T22:46:53.206Z,13.00
2023-09-27T22:49:22.664Z,13.90
2023-09-27T22:51:50.620Z,15.00
2023-09-27T22:54:21.081Z,12.10
2023-09-27T22:56:52.504Z,14.90
2023-09-27T22:59:19.522Z,12.70
2023-09-27T23:01:51.072Z,14.30
2023-09-27T23:04:23.056Z,12.40
2023-09-27T23:07:02.058Z,12.90
2023-09-27T23:09:34.745Z,18.20
2023-09-27T23:12:20.745Z,15.20
2023-09-27T23:15:07.004Z,15.50
2023-09-27T23:17:55.590Z,14.40
2023-09-27T23:20:29.224Z,16.20
2023-09-27T23:22:57.510Z,16.00
2023-09-27T23:25:43.450Z,18.30
2023-09-27T23:28:17.079Z,16.50
2023-09-27T23:30:53.039Z,14.00
2023-09-27T23:33:20.113Z,15.50
2023-09-27T23:35:50.402Z,14.30
2023-09-27T23:38:37.233Z,13.60
2023-09-27T23:41:04.478Z,13.00
2023-09-27T23:43:40.462Z,13.40
2023-09-27T23:46:14.096Z,13.00
2023-09-27T23:48:42.865Z,13.20
2023-09-27T23:51:10.037Z,13.00
2023-09-27T23:53:37.162Z,14.30
2023-09-27T23:56:07.078Z,14.90
2023-09-27T23:58:35.435Z,14.50
